sensor_id;sensor_type;location;lat;lon;timestamp;temperature;humidity
23597;DHT22;40226;50.874;4.394;2023-07-31T00:02:15;16.90;99.90
23597;DHT22;40226;50.874;4.394;2023-07-31T00:04:40;17.00;99.90
23597;DHT22;40226;50.874;4.394;2023-07-31T00:07:06;16.90;99.90
23597;DHT22;40226;50.874;4.394;2023-07-31T00:09:33;16.90;99.90
23597;DHT22;40226;50.874;4.394;2023-07-31T00:11:58;17.00;99.90
23597;DHT22;40226;50.874;4.394;2023-07-31T00:14:24;17.00;99.90
23597;DHT22;40226;50.874;4.394;2023-07-31T00:16:50;17.00;99.90
23597;DHT22;40226;50.874;4.394;2023-07-31T00:19:15;17.10;99.90
23597;DHT22;40226;50.874;4.394;2023-07-31T00:21:41;17.10;99.90
23597;DHT22;40226;50.874;4.394;2023-07-31T00:24:06;17.20;99.90
23597;DHT22;40226;50.874;4.394;2023-07-31T00:26:32;17.10;99.90
23597;DHT22;40226;50.874;4.394;2023-07-31T00:28:57;17.10;99.90
23597;DHT22;40226;50.874;4.394;2023-07-31T00:31:23;17.00;99.90
23597;DHT22;40226;50.874;4.394;2023-07-31T00:33:49;17.00;99.90
23597;DHT22;40226;50.874;4.394;2023-07-31T00:36:14;17.10;99.90
23597;DHT22;40226;50.874;4.394;2023-07-31T00:38:40;17.10;99.90
23597;DHT22;40226;50.874;4.394;2023-07-31T00:41:05;17.10;99.90
23597;DHT22;40226;50.874;4.394;2023-07-31T00:43:31;17.10;99.90
23597;DHT22;40226;50.874;4.394;2023-07-31T00:45:56;17.10;99.90
23597;DHT22;40226;50.874;4.394;2023-07-31T00:48:23;17.10;99.90
23597;DHT22;40226;50.874;4.394;2023-07-31T00:50:49;17.10;99.90
23597;DHT22;40226;50.874;4.394;2023-07-31T00:53:15;17.10;99.90
23597;DHT22;40226;50.874;4.394;2023-07-31T00:55:40;17.20;99.90
23597;DHT22;40226;50.874;4.394;2023-07-31T00:58:06;17.20;99.90
23597;DHT22;40226;50.874;4.394;2023-07-31T01:00:31;17.20;99.90
23597;DHT22;40226;50.874;4.394;2023-07-31T01:02:57;17.20;99.90
23597;DHT22;40226;50.874;4.394;2023-07-31T01:10:33;17.20;99.90
23597;DHT22;40226;50.874;4.394;2023-07-31T01:13:00;17.20;99.90
23597;DHT22;40226;50.874;4.394;2023-07-31T01:15:27;17.30;99.90
23597;DHT22;40226;50.874;4.394;2023-07-31T01:17:52;17.10;99.90
23597;DHT22;40226;50.874;4.394;2023-07-31T01:20:23;17.10;99.90
23597;DHT22;40226;50.874;4.394;2023-07-31T01:23:11;17.10;99.90
23597;DHT22;40226;50.874;4.394;2023-07-31T01:26:08;17.20;99.90
23597;DHT22;40226;50.874;4.394;2023-07-31T01:31:23;17.20;99.90
23597;DHT22;40226;50.874;4.394;2023-07-31T01:33:51;17.10;99.90
23597;DHT22;40226;50.874;4.394;2023-07-31T01:36:18;17.10;99.90
23597;DHT22;40226;50.874;4.394;2023-07-31T01:38:44;17.10;99.90
23597;DHT22;40226;50.874;4.394;2023-07-31T01:41:09;17.10;99.90
23597;DHT22;40226;50.874;4.394;2023-07-31T01:43:35;17.20;99.90
23597;DHT22;40226;50.874;4.394;2023-07-31T01:46:02;17.30;99.90
23597;DHT22;40226;50.874;4.394;2023-07-31T01:48:27;17.20;99.90
23597;DHT22;40226;50.874;4.394;2023-07-31T01:50:53;17.20;99.90
23597;DHT22;40226;50.874;4.394;2023-07-31T01:53:18;17.20;99.90
23597;DHT22;40226;50.874;4.394;2023-07-31T01:55:44;17.30;99.90
23597;DHT22;40226;50.874;4.394;2023-07-31T01:58:10;17.40;99.90
23597;DHT22;40226;50.874;4.394;2023-07-31T02:00:35;17.30;99.90
23597;DHT22;40226;50.874;4.394;2023-07-31T02:03:01;17.30;99.90
23597;DHT22;40226;50.874;4.394;2023-07-31T02:05:26;17.30;99.90
23597;DHT22;40226;50.874;4.394;2023-07-31T02:07:52;17.40;99.90
23597;DHT22;40226;50.874;4.394;2023-07-31T02:10:17;17.40;99.90
23597;DHT22;40226;50.874;4.394;2023-07-31T02:12:43;17.40;99.90
23597;DHT22;40226;50.874;4.394;2023-07-31T02:15:09;17.40;99.90
23597;DHT22;40226;50.874;4.394;2023-07-31T02:17:34;17.40;99.90
23597;DHT22;40226;50.874;4.394;2023-07-31T02:20:00;17.50;99.90
23597;DHT22;40226;50.874;4.394;2023-07-31T02:22:26;17.50;99.90
23597;DHT22;40226;50.874;4.394;2023-07-31T02:24:51;17.50;99.90
23597;DHT22;40226;50.874;4.394;2023-07-31T02:27:17;17.40;99.90
23597;DHT22;40226;50.874;4.394;2023-07-31T02:29:42;17.40;99.90
23597;DHT22;40226;50.874;4.394;2023-07-31T02:32:08;17.40;99.90
23597;DHT22;40226;50.874;4.394;2023-07-31T02:34:33;17.40;99.90
23597;DHT22;40226;50.874;4.394;2023-07-31T02:36:59;17.40;99.90
23597;DHT22;40226;50.874;4.394;2023-07-31T02:39:25;17.40;99.90
23597;DHT22;40226;50.874;4.394;2023-07-31T02:41:50;17.40;99.90
23597;DHT22;40226;50.874;4.394;2023-07-31T02:44:16;17.40;99.90
23597;DHT22;40226;50.874;4.394;2023-07-31T02:46:41;17.30;99.90
23597;DHT22;40226;50.874;4.394;2023-07-31T02:49:07;17.40;99.90
23597;DHT22;40226;50.874;4.394;2023-07-31T02:51:32;17.40;99.90
23597;DHT22;40226;50.874;4.394;2023-07-31T02:53:58;17.30;99.90
23597;DHT22;40226;50.874;4.394;2023-07-31T02:56:23;17.40;99.90
23597;DHT22;40226;50.874;4.394;2023-07-31T02:58:49;17.30;99.90
23597;DHT22;40226;50.874;4.394;2023-07-31T03:01:14;17.30;99.90
23597;DHT22;40226;50.874;4.394;2023-07-31T03:03:41;17.40;99.90
23597;DHT22;40226;50.874;4.394;2023-07-31T03:06:07;17.40;99.90
23597;DHT22;40226;50.874;4.394;2023-07-31T03:08:32;17.40;99.90
23597;DHT22;40226;50.874;4.394;2023-07-31T03:10:58;17.40;99.90
23597;DHT22;40226;50.874;4.394;2023-07-31T03:13:23;17.30;99.90
23597;DHT22;40226;50.874;4.394;2023-07-31T03:15:49;17.30;99.90
23597;DHT22;40226;50.874;4.394;2023-07-31T03:18:15;17.40;99.90
23597;DHT22;40226;50.874;4.394;2023-07-31T03:20:44;17.40;99.90
23597;DHT22;40226;50.874;4.394;2023-07-31T03:23:09;17.40;99.90
23597;DHT22;40226;50.874;4.394;2023-07-31T03:25:35;17.40;99.90
23597;DHT22;40226;50.874;4.394;2023-07-31T03:28:00;17.30;99.90
23597;DHT22;40226;50.874;4.394;2023-07-31T03:30:26;17.20;99.90
23597;DHT22;40226;50.874;4.394;2023-07-31T03:32:52;17.20;99.90
23597;DHT22;40226;50.874;4.394;2023-07-31T03:35:17;17.10;99.90
23597;DHT22;40226;50.874;4.394;2023-07-31T03:37:43;17.10;99.90
23597;DHT22;40226;50.874;4.394;2023-07-31T03:40:09;17.10;99.90
23597;DHT22;40226;50.874;4.394;2023-07-31T03:42:35;17.20;99.90
23597;DHT22;40226;50.874;4.394;2023-07-31T03:45:00;17.10;99.90
23597;DHT22;40226;50.874;4.394;2023-07-31T03:47:26;17.00;99.90
23597;DHT22;40226;50.874;4.394;2023-07-31T03:49:51;17.00;99.90
23597;DHT22;40226;50.874;4.394;2023-07-31T03:52:17;17.00;99.90
23597;DHT22;40226;50.874;4.394;2023-07-31T03:54:43;16.90;99.90
23597;DHT22;40226;50.874;4.394;2023-07-31T03:57:10;16.80;99.90
23597;DHT22;40226;50.874;4.394;2023-07-31T03:59:36;16.70;99.90
23597;DHT22;40226;50.874;4.394;2023-07-31T04:02:04;16.70;99.90
23597;DHT22;40226;50.874;4.394;2023-07-31T04:04:29;16.80;99.90
23597;DHT22;40226;50.874;4.394;2023-07-31T04:06:55;16.80;99.90
23597;DHT22;40226;50.874;4.394;2023-07-31T04:09:20;16.70;99.90
23597;DHT22;40226;50.874;4.394;2023-07-31T04:11:46;16.70;99.90
23597;DHT22;40226;50.874;4.394;2023-07-31T04:14:11;16.70;99.90
23597;DHT22;40226;50.874;4.394;2023-07-31T04:16:37;16.70;99.90
23597;DHT22;40226;50.874;4.394;2023-07-31T04:19:03;16.70;99.90
23597;DHT22;40226;50.874;4.394;2023-07-31T04:21:28;16.70;99.90
23597;DHT22;40226;50.874;4.394;2023-07-31T04:23:54;16.60;99.90
23597;DHT22;40226;50.874;4.394;2023-07-31T04:26:21;16.60;99.90
23597;DHT22;40226;50.874;4.394;2023-07-31T04:28:47;16.60;99.90
23597;DHT22;40226;50.874;4.394;2023-07-31T04:31:12;16.60;99.90
23597;DHT22;40226;50.874;4.394;2023-07-31T04:33:38;16.60;99.90
23597;DHT22;40226;50.874;4.394;2023-07-31T04:36:04;16.60;99.90
23597;DHT22;40226;50.874;4.394;2023-07-31T04:38:30;16.60;99.90
23597;DHT22;40226;50.874;4.394;2023-07-31T04:40:56;16.60;99.90
23597;DHT22;40226;50.874;4.394;2023-07-31T04:43:21;16.70;99.90
23597;DHT22;40226;50.874;4.394;2023-07-31T04:45:47;16.70;99.90
23597;DHT22;40226;50.874;4.394;2023-07-31T04:48:15;16.70;99.90
23597;DHT22;40226;50.874;4.394;2023-07-31T04:50:41;16.70;99.90
23597;DHT22;40226;50.874;4.394;2023-07-31T04:53:06;16.70;99.90
23597;DHT22;40226;50.874;4.394;2023-07-31T04:55:32;16.70;99.90
23597;DHT22;40226;50.874;4.394;2023-07-31T04:57:59;16.80;99.90
23597;DHT22;40226;50.874;4.394;2023-07-31T05:00:25;16.80;99.90
23597;DHT22;40226;50.874;4.394;2023-07-31T05:02:50;16.80;99.90
23597;DHT22;40226;50.874;4.394;2023-07-31T05:05:16;16.90;99.90
23597;DHT22;40226;50.874;4.394;2023-07-31T05:07:41;16.90;99.90
23597;DHT22;40226;50.874;4.394;2023-07-31T05:10:08;16.80;99.90
23597;DHT22;40226;50.874;4.394;2023-07-31T05:12:33;16.70;99.90
23597;DHT22;40226;50.874;4.394;2023-07-31T05:14:59;16.60;99.90
23597;DHT22;40226;50.874;4.394;2023-07-31T05:17:25;16.50;99.90
23597;DHT22;40226;50.874;4.394;2023-07-31T05:19:50;16.50;99.90
23597;DHT22;40226;50.874;4.394;2023-07-31T05:22:16;16.50;99.90
23597;DHT22;40226;50.874;4.394;2023-07-31T05:24:42;16.50;99.90
23597;DHT22;40226;50.874;4.394;2023-07-31T05:27:08;16.50;99.90
23597;DHT22;40226;50.874;4.394;2023-07-31T05:29:35;16.40;99.90
23597;DHT22;40226;50.874;4.394;2023-07-31T05:32:00;16.30;99.90
23597;DHT22;40226;50.874;4.394;2023-07-31T05:34:26;16.30;99.90
23597;DHT22;40226;50.874;4.394;2023-07-31T05:36:52;16.30;99.90
23597;DHT22;40226;50.874;4.394;2023-07-31T05:39:17;16.30;99.90
23597;DHT22;40226;50.874;4.394;2023-07-31T05:41:45;16.30;99.90
23597;DHT22;40226;50.874;4.394;2023-07-31T05:44:10;16.30;99.90
23597;DHT22;40226;50.874;4.394;2023-07-31T05:46:36;16.30;99.90
23597;DHT22;40226;50.874;4.394;2023-07-31T05:49:02;16.30;99.90
23597;DHT22;40226;50.874;4.394;2023-07-31T05:51:28;16.30;99.90
23597;DHT22;40226;50.874;4.394;2023-07-31T05:53:53;16.30;99.90
23597;DHT22;40226;50.874;4.394;2023-07-31T05:56:19;16.40;99.90
23597;DHT22;40226;50.874;4.394;2023-07-31T05:58:44;16.40;99.90
23597;DHT22;40226;50.874;4.394;2023-07-31T06:01:10;16.40;99.90
23597;DHT22;40226;50.874;4.394;2023-07-31T06:03:36;16.40;99.90
23597;DHT22;40226;50.874;4.394;2023-07-31T06:06:01;16.40;99.90
23597;DHT22;40226;50.874;4.394;2023-07-31T06:08:27;16.40;99.90
23597;DHT22;40226;50.874;4.394;2023-07-31T06:10:52;16.40;99.90
23597;DHT22;40226;50.874;4.394;2023-07-31T06:13:18;16.50;99.90
23597;DHT22;40226;50.874;4.394;2023-07-31T06:15:43;16.50;99.90
23597;DHT22;40226;50.874;4.394;2023-07-31T06:18:09;16.50;99.90
23597;DHT22;40226;50.874;4.394;2023-07-31T06:20:36;16.50;99.90
23597;DHT22;40226;50.874;4.394;2023-07-31T06:23:02;16.60;99.90
23597;DHT22;40226;50.874;4.394;2023-07-31T06:25:29;16.60;99.90
23597;DHT22;40226;50.874;4.394;2023-07-31T06:27:54;16.60;99.90
23597;DHT22;40226;50.874;4.394;2023-07-31T06:30:20;16.70;99.90
23597;DHT22;40226;50.874;4.394;2023-07-31T06:32:45;16.70;99.90
23597;DHT22;40226;50.874;4.394;2023-07-31T06:35:11;16.70;99.90
23597;DHT22;40226;50.874;4.394;2023-07-31T06:37:36;16.80;99.90
23597;DHT22;40226;50.874;4.394;2023-07-31T06:40:06;16.90;99.90
23597;DHT22;40226;50.874;4.394;2023-07-31T06:42:33;16.90;99.90
23597;DHT22;40226;50.874;4.394;2023-07-31T06:44:58;16.90;99.90
23597;DHT22;40226;50.874;4.394;2023-07-31T06:47:24;16.90;99.90
23597;DHT22;40226;50.874;4.394;2023-07-31T06:49:50;16.90;99.90
23597;DHT22;40226;50.874;4.394;2023-07-31T06:52:15;16.90;99.90
23597;DHT22;40226;50.874;4.394;2023-07-31T06:54:41;17.00;99.90
23597;DHT22;40226;50.874;4.394;2023-07-31T06:57:07;17.10;99.90
23597;DHT22;40226;50.874;4.394;2023-07-31T06:59:33;17.30;99.90
23597;DHT22;40226;50.874;4.394;2023-07-31T07:01:59;17.30;99.90
23597;DHT22;40226;50.874;4.394;2023-07-31T07:04:24;17.30;99.90
23597;DHT22;40226;50.874;4.394;2023-07-31T07:06:52;17.40;99.90
23597;DHT22;40226;50.874;4.394;2023-07-31T07:09:17;17.40;99.90
23597;DHT22;40226;50.874;4.394;2023-07-31T07:11:43;17.50;99.90
23597;DHT22;40226;50.874;4.394;2023-07-31T07:14:09;17.60;99.90
23597;DHT22;40226;50.874;4.394;2023-07-31T07:16:35;17.60;99.90
23597;DHT22;40226;50.874;4.394;2023-07-31T07:19:01;17.70;99.90
23597;DHT22;40226;50.874;4.394;2023-07-31T07:21:26;17.70;99.90
23597;DHT22;40226;50.874;4.394;2023-07-31T07:23:52;17.90;99.90
23597;DHT22;40226;50.874;4.394;2023-07-31T07:26:17;18.00;99.90
23597;DHT22;40226;50.874;4.394;2023-07-31T07:28:43;17.90;99.90
23597;DHT22;40226;50.874;4.394;2023-07-31T07:31:08;17.80;99.90
23597;DHT22;40226;50.874;4.394;2023-07-31T07:33:34;17.80;99.90
23597;DHT22;40226;50.874;4.394;2023-07-31T07:36:01;17.60;99.90
23597;DHT22;40226;50.874;4.394;2023-07-31T07:38:27;17.70;99.90
23597;DHT22;40226;50.874;4.394;2023-07-31T07:40:52;17.60;99.90
23597;DHT22;40226;50.874;4.394;2023-07-31T07:43:18;17.80;99.90
23597;DHT22;40226;50.874;4.394;2023-07-31T07:45:44;17.80;99.90
23597;DHT22;40226;50.874;4.394;2023-07-31T07:48:09;17.90;99.90
23597;DHT22;40226;50.874;4.394;2023-07-31T07:50:38;17.90;99.90
23597;DHT22;40226;50.874;4.394;2023-07-31T07:53:03;17.70;99.90
23597;DHT22;40226;50.874;4.394;2023-07-31T07:55:29;17.60;99.90
23597;DHT22;40226;50.874;4.394;2023-07-31T07:57:54;17.70;99.90
23597;DHT22;40226;50.874;4.394;2023-07-31T08:00:20;17.70;99.90
23597;DHT22;40226;50.874;4.394;2023-07-31T08:02:46;17.80;99.90
23597;DHT22;40226;50.874;4.394;2023-07-31T08:05:11;17.70;99.90
23597;DHT22;40226;50.874;4.394;2023-07-31T08:07:37;17.70;99.90
23597;DHT22;40226;50.874;4.394;2023-07-31T08:10:03;17.90;99.90
23597;DHT22;40226;50.874;4.394;2023-07-31T08:12:28;18.00;99.90
23597;DHT22;40226;50.874;4.394;2023-07-31T08:14:54;18.20;99.90
23597;DHT22;40226;50.874;4.394;2023-07-31T08:17:19;18.30;99.90
23597;DHT22;40226;50.874;4.394;2023-07-31T08:19:45;18.20;99.90
23597;DHT22;40226;50.874;4.394;2023-07-31T08:22:11;18.40;99.90
23597;DHT22;40226;50.874;4.394;2023-07-31T08:24:37;18.20;99.90
23597;DHT22;40226;50.874;4.394;2023-07-31T08:27:02;18.00;99.90
23597;DHT22;40226;50.874;4.394;2023-07-31T08:29:28;17.90;99.90
23597;DHT22;40226;50.874;4.394;2023-07-31T08:31:53;17.60;99.90
23597;DHT22;40226;50.874;4.394;2023-07-31T08:34:19;17.60;99.90
23597;DHT22;40226;50.874;4.394;2023-07-31T08:36:45;17.80;99.90
23597;DHT22;40226;50.874;4.394;2023-07-31T08:39:10;17.80;99.90
23597;DHT22;40226;50.874;4.394;2023-07-31T08:41:39;17.80;99.90
23597;DHT22;40226;50.874;4.394;2023-07-31T08:44:06;17.90;99.90
23597;DHT22;40226;50.874;4.394;2023-07-31T08:46:32;17.90;99.90
23597;DHT22;40226;50.874;4.394;2023-07-31T08:48:59;17.90;99.90
23597;DHT22;40226;50.874;4.394;2023-07-31T08:51:26;17.80;99.90
23597;DHT22;40226;50.874;4.394;2023-07-31T08:53:53;17.80;99.90
23597;DHT22;40226;50.874;4.394;2023-07-31T08:56:18;17.90;99.90
23597;DHT22;40226;50.874;4.394;2023-07-31T08:58:46;17.80;99.90
23597;DHT22;40226;50.874;4.394;2023-07-31T09:01:13;17.90;99.90
23597;DHT22;40226;50.874;4.394;2023-07-31T09:03:39;18.00;99.90
23597;DHT22;40226;50.874;4.394;2023-07-31T09:06:05;18.10;99.90
23597;DHT22;40226;50.874;4.394;2023-07-31T09:08:32;18.10;99.90
23597;DHT22;40226;50.874;4.394;2023-07-31T09:11:02;18.30;99.90
23597;DHT22;40226;50.874;4.394;2023-07-31T09:13:31;18.20;99.90
23597;DHT22;40226;50.874;4.394;2023-07-31T09:15:57;18.20;99.90
23597;DHT22;40226;50.874;4.394;2023-07-31T09:18:23;18.00;99.90
23597;DHT22;40226;50.874;4.394;2023-07-31T09:21:05;18.10;99.90
23597;DHT22;40226;50.874;4.394;2023-07-31T09:23:47;18.20;99.90
23597;DHT22;40226;50.874;4.394;2023-07-31T09:26:35;18.30;99.90
23597;DHT22;40226;50.874;4.394;2023-07-31T09:29:04;18.40;99.90
23597;DHT22;40226;50.874;4.394;2023-07-31T09:31:42;18.70;99.90
23597;DHT22;40226;50.874;4.394;2023-07-31T09:34:08;18.90;99.90
23597;DHT22;40226;50.874;4.394;2023-07-31T09:36:40;18.80;99.90
23597;DHT22;40226;50.874;4.394;2023-07-31T09:39:09;18.70;99.90
23597;DHT22;40226;50.874;4.394;2023-07-31T09:41:44;18.60;99.90
23597;DHT22;40226;50.874;4.394;2023-07-31T09:44:11;18.60;99.90
23597;DHT22;40226;50.874;4.394;2023-07-31T09:46:37;18.50;99.90
23597;DHT22;40226;50.874;4.394;2023-07-31T09:49:14;18.50;99.90
23597;DHT22;40226;50.874;4.394;2023-07-31T09:51:41;18.40;99.90
23597;DHT22;40226;50.874;4.394;2023-07-31T09:54:11;18.30;99.90
23597;DHT22;40226;50.874;4.394;2023-07-31T09:56:45;18.20;99.90
23597;DHT22;40226;50.874;4.394;2023-07-31T09:59:12;18.20;99.90
23597;DHT22;40226;50.874;4.394;2023-07-31T10:01:42;18.10;99.90
23597;DHT22;40226;50.874;4.394;2023-07-31T10:04:09;17.90;99.90
23597;DHT22;40226;50.874;4.394;2023-07-31T10:06:36;17.70;99.90
23597;DHT22;40226;50.874;4.394;2023-07-31T10:09:06;17.80;99.90
23597;DHT22;40226;50.874;4.394;2023-07-31T10:11:36;17.80;99.90
23597;DHT22;40226;50.874;4.394;2023-07-31T10:14:04;17.80;99.90
23597;DHT22;40226;50.874;4.394;2023-07-31T10:16:31;17.90;99.90
23597;DHT22;40226;50.874;4.394;2023-07-31T10:18:57;17.90;99.90
23597;DHT22;40226;50.874;4.394;2023-07-31T10:21:23;17.90;99.90
23597;DHT22;40226;50.874;4.394;2023-07-31T10:23:49;18.00;99.90
23597;DHT22;40226;50.874;4.394;2023-07-31T10:26:17;18.10;99.90
23597;DHT22;40226;50.874;4.394;2023-07-31T10:28:46;18.30;99.90
23597;DHT22;40226;50.874;4.394;2023-07-31T10:31:12;18.40;99.90
23597;DHT22;40226;50.874;4.394;2023-07-31T10:33:39;18.40;99.90
23597;DHT22;40226;50.874;4.394;2023-07-31T10:36:17;18.30;99.90
23597;DHT22;40226;50.874;4.394;2023-07-31T10:38:43;18.40;99.90
23597;DHT22;40226;50.874;4.394;2023-07-31T10:41:09;18.50;99.90
23597;DHT22;40226;50.874;4.394;2023-07-31T10:43:37;18.50;99.90
23597;DHT22;40226;50.874;4.394;2023-07-31T10:46:12;18.60;99.90
23597;DHT22;40226;50.874;4.394;2023-07-31T10:48:39;18.70;99.90
23597;DHT22;40226;50.874;4.394;2023-07-31T10:51:11;18.80;99.90
23597;DHT22;40226;50.874;4.394;2023-07-31T10:53:41;19.10;99.90
23597;DHT22;40226;50.874;4.394;2023-07-31T10:56:08;19.10;99.90
23597;DHT22;40226;50.874;4.394;2023-07-31T10:58:35;19.10;99.90
23597;DHT22;40226;50.874;4.394;2023-07-31T11:01:02;19.30;99.90
23597;DHT22;40226;50.874;4.394;2023-07-31T11:03:47;19.20;99.90
23597;DHT22;40226;50.874;4.394;2023-07-31T11:06:17;19.20;99.90
23597;DHT22;40226;50.874;4.394;2023-07-31T11:08:47;19.30;99.90
23597;DHT22;40226;50.874;4.394;2023-07-31T11:11:15;19.50;99.90
23597;DHT22;40226;50.874;4.394;2023-07-31T11:13:45;19.50;99.90
23597;DHT22;40226;50.874;4.394;2023-07-31T11:16:12;19.60;99.90
23597;DHT22;40226;50.874;4.394;2023-07-31T11:18:45;19.90;99.90
23597;DHT22;40226;50.874;4.394;2023-07-31T11:21:16;20.10;99.90
23597;DHT22;40226;50.874;4.394;2023-07-31T11:23:46;20.30;99.90
23597;DHT22;40226;50.874;4.394;2023-07-31T11:26:11;20.30;99.90
23597;DHT22;40226;50.874;4.394;2023-07-31T11:28:37;20.20;99.90
23597;DHT22;40226;50.874;4.394;2023-07-31T11:31:04;20.00;99.90
23597;DHT22;40226;50.874;4.394;2023-07-31T11:33:30;19.80;99.90
23597;DHT22;40226;50.874;4.394;2023-07-31T11:35:56;19.80;99.90
23597;DHT22;40226;50.874;4.394;2023-07-31T11:38:28;19.70;99.90
23597;DHT22;40226;50.874;4.394;2023-07-31T11:41:01;19.50;99.90
23597;DHT22;40226;50.874;4.394;2023-07-31T11:43:27;19.30;99.90
23597;DHT22;40226;50.874;4.394;2023-07-31T11:45:55;19.20;99.90
23597;DHT22;40226;50.874;4.394;2023-07-31T11:48:26;19.20;99.90
23597;DHT22;40226;50.874;4.394;2023-07-31T11:50:53;19.30;99.90
23597;DHT22;40226;50.874;4.394;2023-07-31T11:55:52;19.20;99.90
23597;DHT22;40226;50.874;4.394;2023-07-31T11:58:18;19.30;99.90
23597;DHT22;40226;50.874;4.394;2023-07-31T12:00:45;19.30;99.90
23597;DHT22;40226;50.874;4.394;2023-07-31T12:03:11;19.40;99.90
23597;DHT22;40226;50.874;4.394;2023-07-31T12:05:37;19.50;99.90
23597;DHT22;40226;50.874;4.394;2023-07-31T12:08:09;19.70;99.90
23597;DHT22;40226;50.874;4.394;2023-07-31T12:10:34;20.00;99.90
23597;DHT22;40226;50.874;4.394;2023-07-31T12:13:02;20.10;99.90
23597;DHT22;40226;50.874;4.394;2023-07-31T12:15:38;20.00;99.90
23597;DHT22;40226;50.874;4.394;2023-07-31T12:18:09;19.90;99.90
23597;DHT22;40226;50.874;4.394;2023-07-31T12:20:35;20.10;99.90
23597;DHT22;40226;50.874;4.394;2023-07-31T12:23:01;20.10;99.90
23597;DHT22;40226;50.874;4.394;2023-07-31T12:25:32;20.10;99.90
23597;DHT22;40226;50.874;4.394;2023-07-31T12:27:57;19.90;99.90
23597;DHT22;40226;50.874;4.394;2023-07-31T12:30:28;20.00;99.90
23597;DHT22;40226;50.874;4.394;2023-07-31T12:32:54;20.10;99.90
23597;DHT22;40226;50.874;4.394;2023-07-31T12:35:19;20.10;99.90
23597;DHT22;40226;50.874;4.394;2023-07-31T12:37:45;20.00;99.90
23597;DHT22;40226;50.874;4.394;2023-07-31T12:40:11;20.00;99.90
23597;DHT22;40226;50.874;4.394;2023-07-31T12:42:36;20.10;99.90
23597;DHT22;40226;50.874;4.394;2023-07-31T12:45:02;20.30;99.90
23597;DHT22;40226;50.874;4.394;2023-07-31T12:47:29;20.30;99.90
23597;DHT22;40226;50.874;4.394;2023-07-31T12:49:55;20.40;99.90
23597;DHT22;40226;50.874;4.394;2023-07-31T12:52:20;20.30;99.90
23597;DHT22;40226;50.874;4.394;2023-07-31T12:54:46;20.40;99.90
23597;DHT22;40226;50.874;4.394;2023-07-31T12:57:11;20.60;99.90
23597;DHT22;40226;50.874;4.394;2023-07-31T12:59:37;20.60;99.90
23597;DHT22;40226;50.874;4.394;2023-07-31T13:02:03;20.60;99.90
23597;DHT22;40226;50.874;4.394;2023-07-31T13:04:28;20.50;99.90
23597;DHT22;40226;50.874;4.394;2023-07-31T13:06:54;20.20;99.90
23597;DHT22;40226;50.874;4.394;2023-07-31T13:09:20;20.10;99.90
23597;DHT22;40226;50.874;4.394;2023-07-31T13:11:45;19.90;99.90
23597;DHT22;40226;50.874;4.394;2023-07-31T13:14:11;20.00;99.90
23597;DHT22;40226;50.874;4.394;2023-07-31T13:16:37;19.90;99.90
23597;DHT22;40226;50.874;4.394;2023-07-31T13:19:03;19.90;99.90
23597;DHT22;40226;50.874;4.394;2023-07-31T13:21:29;19.90;99.90
23597;DHT22;40226;50.874;4.394;2023-07-31T13:23:54;19.70;99.90
23597;DHT22;40226;50.874;4.394;2023-07-31T13:26:23;19.60;99.90
23597;DHT22;40226;50.874;4.394;2023-07-31T13:28:48;19.40;99.90
23597;DHT22;40226;50.874;4.394;2023-07-31T13:31:14;19.10;99.90
23597;DHT22;40226;50.874;4.394;2023-07-31T13:33:39;18.70;99.90
23597;DHT22;40226;50.874;4.394;2023-07-31T13:36:05;18.50;99.90
23597;DHT22;40226;50.874;4.394;2023-07-31T13:38:30;18.30;99.90
23597;DHT22;40226;50.874;4.394;2023-07-31T13:40:56;18.20;99.90
23597;DHT22;40226;50.874;4.394;2023-07-31T13:43:22;18.20;99.90
23597;DHT22;40226;50.874;4.394;2023-07-31T13:45:47;18.10;99.90
23597;DHT22;40226;50.874;4.394;2023-07-31T13:48:13;18.00;99.90
23597;DHT22;40226;50.874;4.394;2023-07-31T13:50:38;18.00;99.90
23597;DHT22;40226;50.874;4.394;2023-07-31T13:53:04;17.90;99.90
23597;DHT22;40226;50.874;4.394;2023-07-31T13:55:29;18.00;99.90
23597;DHT22;40226;50.874;4.394;2023-07-31T13:57:55;18.00;99.90
23597;DHT22;40226;50.874;4.394;2023-07-31T14:00:21;18.00;99.90
23597;DHT22;40226;50.874;4.394;2023-07-31T14:02:46;18.00;99.90
23597;DHT22;40226;50.874;4.394;2023-07-31T14:05:12;17.90;99.90
23597;DHT22;40226;50.874;4.394;2023-07-31T14:07:37;17.90;99.90
23597;DHT22;40226;50.874;4.394;2023-07-31T14:10:03;17.90;99.90
23597;DHT22;40226;50.874;4.394;2023-07-31T14:12:29;17.90;99.90
23597;DHT22;40226;50.874;4.394;2023-07-31T14:14:56;17.80;99.90
23597;DHT22;40226;50.874;4.394;2023-07-31T14:17:21;17.80;99.90
23597;DHT22;40226;50.874;4.394;2023-07-31T14:19:47;17.80;99.90
23597;DHT22;40226;50.874;4.394;2023-07-31T14:22:12;17.80;99.90
23597;DHT22;40226;50.874;4.394;2023-07-31T14:24:38;17.80;99.90
23597;DHT22;40226;50.874;4.394;2023-07-31T14:27:04;17.80;99.90
23597;DHT22;40226;50.874;4.394;2023-07-31T14:29:30;17.80;99.90
23597;DHT22;40226;50.874;4.394;2023-07-31T14:31:55;17.90;99.90
23597;DHT22;40226;50.874;4.394;2023-07-31T14:34:21;17.90;99.90
23597;DHT22;40226;50.874;4.394;2023-07-31T14:36:46;17.80;99.90
23597;DHT22;40226;50.874;4.394;2023-07-31T14:39:12;17.80;99.90
23597;DHT22;40226;50.874;4.394;2023-07-31T14:41:38;17.80;99.90
23597;DHT22;40226;50.874;4.394;2023-07-31T14:44:03;17.80;99.90
23597;DHT22;40226;50.874;4.394;2023-07-31T14:46:29;17.80;99.90
23597;DHT22;40226;50.874;4.394;2023-07-31T14:48:54;17.70;99.90
23597;DHT22;40226;50.874;4.394;2023-07-31T14:51:20;17.70;99.90
23597;DHT22;40226;50.874;4.394;2023-07-31T14:53:46;17.70;99.90
23597;DHT22;40226;50.874;4.394;2023-07-31T14:56:12;17.80;99.90
23597;DHT22;40226;50.874;4.394;2023-07-31T14:58:38;17.70;99.90
23597;DHT22;40226;50.874;4.394;2023-07-31T15:01:03;17.80;99.90
23597;DHT22;40226;50.874;4.394;2023-07-31T15:03:29;17.80;99.90
23597;DHT22;40226;50.874;4.394;2023-07-31T15:05:55;17.70;99.90
23597;DHT22;40226;50.874;4.394;2023-07-31T15:08:20;17.80;99.90
23597;DHT22;40226;50.874;4.394;2023-07-31T15:10:46;17.70;99.90
23597;DHT22;40226;50.874;4.394;2023-07-31T15:13:11;17.70;99.90
23597;DHT22;40226;50.874;4.394;2023-07-31T15:15:37;17.70;99.90
23597;DHT22;40226;50.874;4.394;2023-07-31T15:18:03;17.70;99.90
23597;DHT22;40226;50.874;4.394;2023-07-31T15:20:28;17.70;99.90
23597;DHT22;40226;50.874;4.394;2023-07-31T15:22:55;17.70;99.90
23597;DHT22;40226;50.874;4.394;2023-07-31T15:25:20;17.60;99.90
23597;DHT22;40226;50.874;4.394;2023-07-31T15:27:46;17.60;99.90
23597;DHT22;40226;50.874;4.394;2023-07-31T15:30:12;17.60;99.90
23597;DHT22;40226;50.874;4.394;2023-07-31T15:32:37;17.60;99.90
23597;DHT22;40226;50.874;4.394;2023-07-31T15:35:05;17.70;99.90
23597;DHT22;40226;50.874;4.394;2023-07-31T15:37:30;17.70;99.90